createdAt,value
2023-02-22T00:01:00.279Z,5.94
2023-02-22T00:03:32.539Z,6.02
2023-02-22T00:06:05.405Z,6.14
2023-02-22T00:08:35.781Z,6.15
2023-02-22T00:11:08.795Z,6.15
2023-02-22T00:13:37.278Z,6.19
2023-02-22T00:16:05.117Z,6.10
2023-02-22T00:18:32.127Z,6.02
2023-02-22T00:21:01.160Z,5.82
2023-02-22T00:23:30.876Z,5.66
2023-02-22T00:25:59.525Z,5.42
2023-02-22T00:28:27.062Z,5.53
2023-02-22T00:30:55.200Z,5.50
2023-02-22T00:33:23.383Z,5.40
2023-02-22T00:35:50.470Z,5.36
2023-02-22T00:38:19.868Z,5.29
2023-02-22T00:40:47.092Z,5.35
2023-02-22T00:43:16.924Z,5.52
2023-02-22T00:45:44.285Z,5.66
2023-02-22T00:48:11.502Z,5.76
2023-02-22T00:50:39.420Z,5.88
2023-02-22T00:53:07.927Z,5.89
2023-02-22T00:55:37.823Z,5.96
2023-02-22T00:58:07.149Z,5.90
2023-02-22T01:00:41.818Z,5.52
2023-02-22T01:03:11.646Z,5.22
2023-02-22T01:05:39.449Z,5.23
2023-02-22T01:08:08.804Z,5.19
2023-02-22T01:10:37.460Z,5.08
2023-02-22T01:13:09.415Z,4.96
2023-02-22T01:15:40.383Z,5.01
2023-02-22T01:18:08.663Z,5.10
2023-02-22T01:20:35.921Z,4.94
2023-02-22T01:23:07.993Z,4.94
2023-02-22T01:25:36.056Z,4.95
2023-02-22T01:28:05.132Z,4.88
2023-02-22T01:30:35.444Z,4.92
2023-02-22T01:33:05.057Z,4.93
2023-02-22T01:35:35.965Z,4.86
2023-02-22T01:38:03.560Z,4.70
2023-02-22T01:40:35.825Z,4.76
2023-02-22T01:43:19.604Z,4.74
2023-02-22T01:45:58.318Z,4.76
2023-02-22T01:48:38.776Z,4.89
2023-02-22T01:51:12.233Z,5.02
2023-02-22T01:54:02.302Z,5.09
2023-02-22T01:56:33.031Z,5.07
2023-02-22T01:59:03.759Z,4.90
2023-02-22T02:01:31.092Z,4.98
2023-02-22T02:04:00.499Z,4.78
2023-02-22T02:06:31.964Z,4.81
2023-02-22T02:09:43.967Z,4.77
2023-02-22T02:12:14.433Z,4.70
2023-02-22T02:14:44.121Z,4.65
2023-02-22T02:17:18.207Z,4.59
2023-02-22T02:20:07.454Z,4.62
2023-02-22T02:22:43.759Z,4.65
2023-02-22T02:26:10.128Z,4.47
2023-02-22T02:29:07.140Z,4.42
2023-02-22T02:31:53.241Z,4.49
2023-02-22T02:34:42.116Z,4.53
2023-02-22T02:37:18.334Z,4.50
2023-02-22T02:40:11.790Z,4.41
2023-02-22T02:42:51.739Z,4.22
2023-02-22T02:45:26.920Z,4.15
2023-02-22T02:47:58.998Z,4.10
2023-02-22T02:50:32.346Z,4.06
2023-02-22T02:53:05.960Z,4.32
2023-02-22T02:55:36.847Z,4.48
2023-02-22T02:58:08.645Z,4.66
2023-02-22T03:00:41.396Z,4.81
2023-02-22T03:03:27.475Z,4.91
2023-02-22T03:06:06.769Z,4.79
2023-02-22T03:08:45.396Z,4.66
2023-02-22T03:11:20.174Z,4.50
2023-02-22T03:14:03.174Z,4.50
2023-02-22T03:16:52.421Z,4.40
2023-02-22T03:19:33.482Z,4.30
2023-02-22T03:22:04.338Z,4.32
2023-02-22T03:24:37.649Z,4.42
2023-02-22T03:27:15.726Z,4.56
2023-02-22T03:29:51.404Z,4.54
2023-02-22T03:32:23.856Z,4.52
2023-02-22T03:35:03.108Z,4.52
2023-02-22T03:37:35.439Z,4.54
2023-02-22T03:40:16.160Z,4.41
2023-02-22T03:42:51.338Z,4.39
2023-02-22T03:45:25.492Z,4.51
2023-02-22T03:48:03.734Z,4.44
2023-02-22T03:50:35.906Z,4.41
2023-02-22T03:53:05.678Z,4.24
2023-02-22T03:55:35.966Z,3.94
2023-02-22T03:58:10.552Z,3.92
2023-02-22T04:00:39.141Z,3.76
2023-02-22T04:03:06.328Z,3.70
2023-02-22T04:05:33.850Z,3.58
2023-02-22T04:08:01.753Z,3.61
2023-02-22T04:10:31.078Z,3.73
2023-02-22T04:12:59.405Z,3.58
2023-02-22T04:15:27.258Z,3.44
2023-02-22T04:18:01.333Z,3.35
2023-02-22T04:20:28.586Z,3.35
2023-02-22T04:22:58.662Z,3.27
2023-02-22T04:25:26.948Z,3.09
2023-02-22T04:27:54.956Z,3.15
2023-02-22T04:30:34.442Z,3.10
2023-02-22T04:33:03.573Z,3.03
2023-02-22T04:35:30.605Z,3.07
2023-02-22T04:37:58.614Z,3.20
2023-02-22T04:40:25.672Z,3.24
2023-02-22T04:42:53.016Z,3.36
2023-02-22T04:45:20.301Z,3.45
2023-02-22T04:47:47.956Z,3.49
2023-02-22T04:50:16.443Z,3.52
2023-02-22T04:52:44.381Z,3.47
2023-02-22T04:55:12.288Z,3.21
2023-02-22T04:57:40.001Z,3.27
2023-02-22T05:00:09.713Z,3.28
2023-02-22T05:02:41.081Z,3.29
2023-02-22T05:05:08.998Z,3.35
2023-02-22T05:07:36.741Z,3.35
2023-02-22T05:10:04.270Z,3.44
2023-02-22T05:12:31.261Z,3.32
2023-02-22T05:14:58.875Z,3.32
2023-02-22T05:17:25.854Z,3.26
2023-02-22T05:19:53.453Z,3.13
2023-02-22T05:22:20.644Z,2.99
2023-02-22T05:24:48.550Z,2.74
2023-02-22T05:27:15.531Z,2.79
2023-02-22T05:29:42.793Z,2.98
2023-02-22T05:32:10.149Z,3.09
2023-02-22T05:34:37.416Z,3.13
2023-02-22T05:37:05.297Z,3.16
2023-02-22T05:39:33.077Z,3.09
2023-02-22T05:42:00.520Z,3.07
2023-02-22T05:44:28.207Z,3.02
2023-02-22T05:46:55.684Z,3.17
2023-02-22T05:49:22.711Z,3.28
2023-02-22T05:51:50.969Z,3.46
2023-02-22T05:54:17.897Z,3.39
2023-02-22T05:56:45.286Z,3.32
2023-02-22T05:59:12.875Z,3.49
2023-02-22T06:01:40.313Z,3.73
2023-02-22T06:04:07.295Z,3.68
2023-02-22T06:06:34.765Z,3.64
2023-02-22T06:09:02.047Z,3.59
2023-02-22T06:11:29.055Z,3.59
2023-02-22T06:13:56.153Z,3.54
2023-02-22T06:16:24.487Z,3.59
2023-02-22T06:18:51.799Z,3.62
2023-02-22T06:21:19.659Z,3.67
2023-02-22T06:23:47.141Z,3.73
2023-02-22T06:26:17.196Z,3.61
2023-02-22T06:28:44.300Z,3.82
2023-02-22T06:31:11.447Z,3.86
2023-02-22T06:33:38.547Z,3.95
2023-02-22T06:36:05.887Z,3.83
2023-02-22T06:38:33.491Z,4.00
2023-02-22T06:41:00.593Z,4.26
2023-02-22T06:43:27.716Z,4.47
2023-02-22T06:45:54.801Z,4.36
2023-02-22T06:48:21.879Z,4.37
2023-02-22T06:50:48.843Z,4.38
2023-02-22T06:53:16.327Z,4.54
2023-02-22T06:55:43.898Z,4.88
2023-02-22T06:58:10.873Z,5.19
2023-02-22T07:00:37.962Z,5.28
2023-02-22T07:03:05.314Z,5.58
2023-02-22T07:05:32.446Z,5.76
2023-02-22T07:08:05.755Z,5.62
2023-02-22T07:10:35.216Z,5.48
2023-02-22T07:13:03.722Z,5.48
2023-02-22T07:15:32.886Z,5.53
2023-02-22T07:18:02.542Z,5.45
2023-02-22T07:20:31.298Z,5.71
2023-02-22T07:22:58.334Z,5.58
2023-02-22T07:25:25.749Z,5.64
2023-02-22T07:27:53.168Z,6.05
2023-02-22T07:30:31.410Z,6.32
2023-02-22T07:33:00.891Z,6.51
2023-02-22T07:35:30.519Z,6.89
2023-02-22T07:37:57.853Z,6.96
2023-02-22T07:40:26.590Z,7.00
2023-02-22T07:43:01.478Z,6.99
2023-02-22T07:45:31.277Z,6.85
2023-02-22T07:47:59.729Z,6.90
2023-02-22T07:50:30.311Z,7.19
2023-02-22T07:52:58.779Z,7.24
2023-02-22T07:55:28.579Z,7.28
2023-02-22T07:57:59.644Z,7.66
2023-02-22T08:00:32.802Z,7.84
2023-02-22T08:03:01.781Z,7.98
2023-02-22T08:05:30.115Z,8.17
2023-02-22T08:07:57.261Z,8.41
2023-02-22T08:10:26.063Z,8.56
2023-02-22T08:12:54.092Z,8.70
2023-02-22T08:15:36.886Z,8.90
2023-02-22T08:18:09.271Z,9.16
2023-02-22T08:20:38.139Z,9.51
2023-02-22T08:23:06.822Z,9.31
2023-02-22T08:25:34.506Z,9.64
2023-02-22T08:28:05.741Z,9.85
2023-02-22T08:30:35.167Z,10.22
2023-02-22T08:33:03.435Z,10.38
2023-02-22T08:35:32.673Z,10.50
2023-02-22T08:38:04.672Z,10.70
2023-02-22T08:40:35.473Z,10.55
2023-02-22T08:43:03.685Z,10.28
2023-02-22T08:45:31.112Z,10.60
2023-02-22T08:47:59.704Z,10.56
2023-02-22T08:50:35.918Z,10.85
2023-02-22T08:53:05.380Z,11.02
2023-02-22T08:55:35.091Z,11.43
2023-02-22T08:58:03.334Z,11.77
2023-02-22T09:00:33.525Z,12.05
2023-02-22T09:03:02.162Z,12.19
2023-02-22T09:05:31.430Z,12.45
2023-02-22T09:07:59.396Z,12.68
2023-02-22T09:10:30.319Z,12.91
2023-02-22T09:13:01.082Z,13.02
2023-02-22T09:15:29.590Z,13.07
2023-02-22T09:17:57.293Z,12.98
2023-02-22T09:20:25.163Z,13.01
2023-02-22T09:22:52.872Z,13.00
2023-02-22T09:25:23.096Z,12.72
2023-02-22T09:27:52.151Z,13.17
2023-02-22T09:30:32.472Z,13.16
2023-02-22T09:33:06.386Z,13.52
2023-02-22T09:35:36.587Z,13.71
2023-02-22T09:38:06.524Z,13.79
2023-02-22T09:40:41.241Z,13.82
2023-02-22T09:43:21.555Z,13.87
2023-02-22T09:46:13.871Z,14.12
2023-02-22T09:49:03.554Z,14.13
2023-02-22T09:51:42.409Z,14.24
2023-02-22T09:54:34.462Z,14.29
2023-02-22T09:57:08.901Z,14.08
2023-02-22T09:59:48.766Z,14.40
2023-02-22T10:02:36.150Z,14.55
2023-02-22T10:05:14.111Z,14.66
2023-02-22T10:07:48.090Z,14.68
2023-02-22T10:10:19.624Z,14.71
2023-02-22T10:12:59.048Z,14.86
2023-02-22T10:15:51.847Z,15.02
2023-02-22T10:18:46.831Z,15.22
2023-02-22T10:21:22.075Z,15.21
2023-02-22T10:24:14.778Z,15.26
2023-02-22T10:26:45.100Z,15.38
2023-02-22T10:29:19.133Z,15.55
2023-02-22T10:31:52.293Z,15.66
2023-02-22T10:34:25.678Z,15.74
2023-02-22T10:37:08.387Z,15.88
2023-02-22T10:39:39.052Z,16.01
2023-02-22T10:42:08.322Z,16.02
2023-02-22T10:44:37.021Z,16.21
2023-02-22T10:47:11.051Z,16.25
2023-02-22T10:49:46.530Z,16.33
2023-02-22T10:52:22.530Z,16.46
2023-02-22T10:54:52.182Z,16.53
2023-02-22T10:57:32.210Z,16.64
2023-02-22T11:00:15.696Z,16.83
2023-02-22T11:02:53.949Z,16.84
2023-02-22T11:05:30.047Z,17.03
2023-02-22T11:08:21.471Z,17.12
2023-02-22T11:10:54.144Z,17.28
2023-02-22T11:13:30.332Z,17.42
2023-02-22T11:16:27.201Z,17.63
2023-02-22T11:19:03.155Z,17.73
2023-02-22T11:21:32.814Z,17.96
2023-02-22T11:24:08.786Z,18.08
2023-02-22T11:27:01.460Z,18.32
2023-02-22T11:29:34.879Z,18.39
2023-02-22T11:32:13.675Z,18.57
2023-02-22T11:34:42.959Z,18.91
2023-02-22T11:37:33.783Z,19.14
2023-02-22T11:40:19.769Z,19.42
2023-02-22T11:42:47.907Z,19.65
2023-02-22T11:45:25.050Z,19.57
2023-02-22T11:47:59.437Z,19.89
2023-02-22T11:50:28.036Z,20.23
2023-02-22T11:53:06.468Z,20.32
2023-02-22T11:55:45.210Z,20.64
2023-02-22T11:58:46.647Z,20.89
2023-02-22T12:01:35.451Z,21.08
2023-02-22T12:04:23.051Z,21.30
2023-02-22T12:06:51.572Z,21.44
2023-02-22T12:09:25.428Z,21.55
2023-02-22T12:12:15.499Z,21.77
2023-02-22T12:15:01.356Z,22.04
2023-02-22T12:17:43.692Z,22.22
2023-02-22T12:20:22.341Z,22.59
2023-02-22T12:23:03.291Z,22.73
2023-02-22T12:25:42.260Z,22.94
2023-02-22T12:28:26.984Z,23.11
2023-02-22T12:31:28.956Z,23.23
2023-02-22T12:34:38.479Z,23.22
2023-02-22T12:37:23.331Z,23.66
2023-02-22T12:40:08.745Z,24.08
2023-02-22T12:43:22.871Z,24.24
2023-02-22T12:46:12.834Z,24.45
2023-02-22T12:48:49.953Z,24.77
2023-02-22T12:51:30.157Z,25.03
2023-02-22T12:54:40.501Z,25.19
2023-02-22T12:57:26.257Z,25.25
2023-02-22T13:00:02.790Z,25.55
2023-02-22T13:06:05.399Z,26.01
2023-02-22T13:08:51.795Z,25.99
2023-02-22T13:11:37.669Z,26.40
2023-02-22T13:14:30.314Z,26.38
2023-02-22T13:17:05.999Z,26.50
2023-02-22T13:19:49.269Z,26.69
2023-02-22T13:22:25.664Z,27.20
2023-02-22T13:24:56.815Z,27.12
2023-02-22T13:27:51.267Z,27.38
2023-02-22T13:30:24.411Z,27.51
2023-02-22T13:33:19.403Z,27.54
2023-02-22T13:35:59.068Z,27.60
2023-02-22T13:38:33.612Z,27.65
2023-02-22T13:41:03.415Z,27.75
2023-02-22T13:43:52.119Z,27.79
2023-02-22T13:46:37.794Z,27.76
2023-02-22T13:49:20.886Z,27.50
2023-02-22T13:52:02.098Z,27.76
2023-02-22T13:55:03.153Z,27.87
2023-02-22T13:57:39.817Z,27.85
2023-02-22T14:00:16.670Z,27.39
2023-02-22T14:03:02.039Z,27.70
2023-02-22T14:05:50.387Z,27.63
2023-02-22T14:08:17.657Z,27.33
2023-02-22T14:10:51.316Z,27.80
2023-02-22T14:13:22.719Z,27.95
2023-02-22T14:16:00.527Z,28.02
2023-02-22T14:18:36.822Z,27.70
2023-02-22T14:21:20.164Z,27.84
2023-02-22T14:23:50.919Z,28.29
2023-02-22T14:26:35.019Z,28.49
2023-02-22T14:29:08.167Z,28.56
2023-02-22T14:31:41.407Z,28.53
2023-02-22T14:34:16.228Z,28.59
2023-02-22T14:37:02.876Z,28.40
2023-02-22T14:39:41.603Z,28.56
2023-02-22T14:42:30.242Z,28.48
2023-02-22T14:45:10.169Z,28.59
2023-02-22T14:47:49.784Z,28.48
2023-02-22T14:50:24.261Z,28.28
2023-02-22T14:53:07.143Z,28.40
2023-02-22T14:55:42.646Z,28.39
2023-02-22T14:58:19.907Z,27.96
2023-02-22T15:00:49.537Z,27.43
2023-02-22T15:03:29.130Z,27.79
2023-02-22T15:05:59.874Z,27.91
2023-02-22T15:08:28.768Z,27.79
2023-02-22T15:10:55.749Z,27.52
2023-02-22T15:13:28.420Z,27.58
2023-02-22T15:16:01.877Z,27.44
2023-02-22T15:19:00.123Z,27.28
2023-02-22T15:21:30.250Z,27.23
2023-02-22T15:24:08.315Z,27.17
2023-02-22T15:27:00.330Z,26.44
2023-02-22T15:29:36.234Z,25.93
2023-02-22T15:32:29.613Z,25.33
2023-02-22T15:35:12.602Z,25.21
2023-02-22T15:37:40.261Z,25.41
2023-02-22T15:40:21.117Z,25.50
2023-02-22T15:42:58.547Z,25.42
2023-02-22T15:45:26.362Z,25.26
2023-02-22T15:47:56.609Z,25.04
2023-02-22T15:50:28.853Z,24.72
2023-02-22T15:53:07.736Z,24.41
2023-02-22T15:55:44.116Z,24.09
2023-02-22T15:58:24.101Z,23.78
2023-02-22T16:01:05.485Z,23.46
2023-02-22T16:03:45.147Z,23.03
2023-02-22T16:06:18.220Z,22.62
2023-02-22T16:08:55.184Z,22.11
2023-02-22T16:11:33.059Z,21.45
2023-02-22T16:14:05.233Z,20.95
2023-02-22T16:16:37.576Z,20.43
2023-02-22T16:19:25.682Z,19.74
2023-02-22T16:21:58.586Z,19.21
2023-02-22T16:24:33.951Z,18.96
2023-02-22T16:27:06.952Z,18.68
2023-02-22T16:29:34.139Z,18.26
2023-02-22T16:32:02.089Z,17.69
2023-02-22T16:34:29.243Z,17.58
2023-02-22T16:36:56.984Z,17.36
2023-02-22T16:39:27.382Z,17.18
2023-02-22T16:41:57.681Z,17.06
2023-02-22T16:44:25.734Z,16.61
2023-02-22T16:47:00.869Z,16.55
2023-02-22T16:49:28.017Z,16.36
2023-02-22T16:51:59.038Z,16.02
2023-02-22T16:54:29.194Z,15.90
2023-02-22T16:57:00.490Z,15.82
2023-02-22T16:59:28.481Z,15.74
2023-02-22T17:01:58.972Z,15.63
2023-02-22T17:04:29.651Z,15.48
2023-02-22T17:06:59.243Z,15.31
2023-02-22T17:09:26.603Z,15.10
2023-02-22T17:11:54.208Z,14.96
2023-02-22T17:14:24.576Z,14.90
2023-02-22T17:16:52.142Z,14.74
2023-02-22T17:19:24.617Z,14.50
2023-02-22T17:21:52.174Z,14.34
2023-02-22T17:24:23.195Z,14.19
2023-02-22T17:26:53.241Z,14.02
2023-02-22T17:29:20.824Z,13.85
2023-02-22T17:31:49.134Z,13.73
2023-02-22T17:34:16.485Z,13.66
2023-02-22T17:36:43.927Z,13.63
2023-02-22T17:39:11.313Z,13.54
2023-02-22T17:41:40.630Z,13.55
2023-02-22T17:44:08.592Z,13.41
2023-02-22T17:46:36.980Z,13.30
2023-02-22T17:49:04.006Z,13.14
2023-02-22T17:51:31.039Z,12.93
2023-02-22T17:53:58.315Z,12.81
2023-02-22T17:56:25.672Z,12.79
2023-02-22T17:58:55.106Z,12.84
2023-02-22T18:01:27.346Z,12.86
2023-02-22T18:03:56.113Z,13.18
2023-02-22T18:06:27.286Z,12.96
2023-02-22T18:08:56.793Z,13.12
2023-02-22T18:11:28.503Z,13.05
2023-02-22T18:13:57.127Z,13.00
2023-02-22T18:16:28.509Z,13.07
2023-02-22T18:18:56.499Z,13.12
2023-02-22T18:21:24.642Z,13.13
2023-02-22T18:23:59.125Z,13.07
2023-02-22T18:26:26.797Z,12.99
2023-02-22T18:28:54.089Z,12.82
2023-02-22T18:31:22.541Z,12.73
2023-02-22T18:33:54.887Z,12.73
2023-02-22T18:36:23.531Z,12.75
2023-02-22T18:38:53.257Z,12.60
2023-02-22T18:41:25.985Z,12.51
2023-02-22T18:43:55.631Z,12.41
2023-02-22T18:46:24.470Z,12.40
2023-02-22T18:48:56.856Z,12.32
2023-02-22T18:51:24.939Z,12.20
2023-02-22T18:53:57.154Z,12.20
2023-02-22T18:56:29.846Z,12.21
2023-02-22T18:59:02.762Z,12.15
2023-02-22T19:01:31.483Z,12.17
2023-02-22T19:04:00.469Z,12.15
2023-02-22T19:06:27.521Z,12.09
2023-02-22T19:08:54.573Z,12.07
2023-02-22T19:11:24.151Z,11.88
2023-02-22T19:13:54.160Z,11.61
2023-02-22T19:16:23.442Z,11.51
2023-02-22T19:18:52.913Z,11.45
2023-02-22T19:21:20.988Z,11.47
2023-02-22T19:23:49.077Z,11.44
2023-02-22T19:26:27.753Z,11.38
2023-02-22T19:28:56.870Z,11.31
2023-02-22T19:31:34.107Z,11.24
2023-02-22T19:34:04.045Z,11.22
2023-02-22T19:36:32.174Z,11.17
2023-02-22T19:39:02.853Z,11.07
2023-02-22T19:41:31.483Z,11.03
2023-02-22T19:43:59.010Z,10.97
2023-02-22T19:46:26.849Z,10.75
2023-02-22T19:48:58.013Z,10.60
2023-02-22T19:51:28.928Z,10.54
2023-02-22T19:54:07.265Z,10.48
2023-02-22T19:56:35.696Z,10.43
2023-02-22T19:59:17.039Z,10.31
2023-02-22T20:01:44.734Z,10.28
2023-02-22T20:04:18.673Z,10.21
2023-02-22T20:06:47.137Z,10.08
2023-02-22T20:09:18.454Z,10.09
2023-02-22T20:11:47.632Z,10.03
2023-02-22T20:14:26.523Z,9.96
2023-02-22T20:16:55.657Z,9.88
2023-02-22T20:19:23.615Z,9.87
2023-02-22T20:21:52.701Z,9.81
2023-02-22T20:24:20.277Z,9.69
2023-02-22T20:26:47.773Z,9.66
2023-02-22T20:29:19.503Z,9.64
2023-02-22T20:31:52.741Z,9.63
2023-02-22T20:34:20.199Z,9.48
2023-02-22T20:36:47.211Z,9.44
2023-02-22T20:39:15.128Z,9.53
2023-02-22T20:41:44.565Z,9.70
2023-02-22T20:44:16.546Z,9.75
2023-02-22T20:46:45.499Z,9.78
2023-02-22T20:49:17.616Z,9.69
2023-02-22T20:51:48.549Z,9.48
2023-02-22T20:54:17.018Z,9.49
2023-02-22T20:56:45.922Z,9.49
2023-02-22T20:59:15.412Z,9.57
2023-02-22T21:01:42.724Z,9.57
2023-02-22T21:04:11.571Z,9.55
2023-02-22T21:06:40.457Z,9.26
2023-02-22T21:09:13.486Z,9.11
2023-02-22T21:11:40.827Z,9.06
2023-02-22T21:14:09.286Z,8.91
2023-02-22T21:16:37.669Z,8.86
2023-02-22T21:19:07.263Z,8.61
2023-02-22T21:21:36.485Z,8.80
2023-02-22T21:24:08.130Z,8.90
2023-02-22T21:26:36.410Z,8.87
2023-02-22T21:29:06.635Z,8.82
2023-02-22T21:31:37.234Z,8.84
2023-02-22T21:34:04.984Z,9.14
2023-02-22T21:36:32.508Z,9.28
2023-02-22T21:39:03.481Z,9.32
2023-02-22T21:41:31.588Z,9.18
2023-02-22T21:43:59.871Z,9.16
2023-02-22T21:46:29.423Z,9.11
2023-02-22T21:48:59.094Z,9.01
2023-02-22T21:51:34.048Z,8.94
2023-02-22T21:54:03.945Z,8.84
2023-02-22T21:56:34.624Z,8.82
2023-02-22T21:59:25.614Z,8.69
2023-02-22T22:01:58.309Z,8.70
2023-02-22T22:04:31.654Z,8.64
2023-02-22T22:07:00.420Z,8.51
2023-02-22T22:09:33.281Z,8.32
2023-02-22T22:12:05.357Z,8.32
2023-02-22T22:14:34.487Z,8.27
2023-02-22T22:17:03.193Z,8.09
2023-02-22T22:19:34.418Z,7.98
2023-02-22T22:22:01.848Z,7.94
2023-02-22T22:24:32.327Z,8.06
2023-02-22T22:27:03.903Z,7.97
2023-02-22T22:29:32.517Z,7.84
2023-02-22T22:32:00.102Z,7.79
2023-02-22T22:34:29.813Z,7.94
2023-02-22T22:36:58.643Z,8.04
2023-02-22T22:39:27.058Z,8.05
2023-02-22T22:41:54.219Z,7.85
2023-02-22T22:44:23.883Z,7.81
2023-02-22T22:46:53.958Z,7.80
2023-02-22T22:49:25.819Z,7.91
2023-02-22T22:51:53.648Z,7.85
2023-02-22T22:54:20.635Z,7.74
2023-02-22T22:56:47.648Z,7.52
2023-02-22T22:59:15.486Z,7.49
2023-02-22T23:01:47.102Z,7.50
2023-02-22T23:04:16.602Z,7.40
2023-02-22T23:06:50.753Z,7.29
2023-02-22T23:09:30.615Z,7.22
2023-02-22T23:12:09.040Z,7.34
2023-02-22T23:14:39.197Z,7.36
2023-02-22T23:17:15.425Z,7.31
2023-02-22T23:19:47.008Z,7.28
2023-02-22T23:22:14.607Z,7.28
2023-02-22T23:24:41.832Z,7.27
2023-02-22T23:27:10.978Z,7.18
2023-02-22T23:29:40.752Z,7.29
2023-02-22T23:32:09.131Z,7.41
2023-02-22T23:34:37.178Z,7.36
2023-02-22T23:37:04.222Z,7.43
2023-02-22T23:39:31.239Z,7.48
2023-02-22T23:42:03.508Z,7.41
2023-02-22T23:44:30.874Z,7.19
2023-02-22T23:46:58.057Z,7.09
2023-02-22T23:49:39.024Z,7.08
2023-02-22T23:52:07.525Z,7.07
2023-02-22T23:54:36.624Z,7.03
2023-02-22T23:57:04.876Z,6.96
2023-02-22T23:59:33.598Z,6.94
